sensor_id;sensor_type;location;lat;lon;timestamp;P1;durP1;ratioP1;P2;durP2;ratioP2
17606;SDS011;69222;52.242;20.980;2024-03-02T00:01:13;32.57;;;22.97;;
17606;SDS011;69222;52.242;20.980;2024-03-02T00:03:42;37.83;;;22.23;;
17606;SDS011;69222;52.242;20.980;2024-03-02T00:06:10;35.70;;;22.90;;
17606;SDS011;69222;52.242;20.980;2024-03-02T00:08:38;35.07;;;22.83;;
17606;SDS011;69222;52.242;20.980;2024-03-02T00:11:06;36.37;;;23.50;;
17606;SDS011;69222;52.242;20.980;2024-03-02T00:13:37;34.30;;;23.00;;
17606;SDS011;69222;52.242;20.980;2024-03-02T00:16:06;37.40;;;23.67;;
17606;SDS011;69222;52.242;20.980;2024-03-02T00:18:35;36.50;;;22.63;;
17606;SDS011;69222;52.242;20.980;2024-03-02T00:21:05;37.43;;;23.90;;
17606;SDS011;69222;52.242;20.980;2024-03-02T00:23:36;33.10;;;22.40;;
17606;SDS011;69222;52.242;20.980;2024-03-02T00:26:05;34.03;;;22.17;;
17606;SDS011;69222;52.242;20.980;2024-03-02T00:28:35;37.73;;;23.07;;
17606;SDS011;69222;52.242;20.980;2024-03-02T00:31:05;34.50;;;21.80;;
17606;SDS011;69222;52.242;20.980;2024-03-02T00:33:36;36.97;;;21.43;;
17606;SDS011;69222;52.242;20.980;2024-03-02T00:36:07;37.30;;;22.33;;
17606;SDS011;69222;52.242;20.980;2024-03-02T00:38:42;35.63;;;23.23;;
17606;SDS011;69222;52.242;20.980;2024-03-02T00:41:16;35.87;;;22.73;;
17606;SDS011;69222;52.242;20.980;2024-03-02T00:43:51;35.87;;;21.67;;
17606;SDS011;69222;52.242;20.980;2024-03-02T00:46:27;35.20;;;22.17;;
17606;SDS011;69222;52.242;20.980;2024-03-02T00:48:59;36.43;;;23.13;;
17606;SDS011;69222;52.242;20.980;2024-03-02T00:51:30;30.97;;;21.50;;
17606;SDS011;69222;52.242;20.980;2024-03-02T00:53:59;31.30;;;20.53;;
17606;SDS011;69222;52.242;20.980;2024-03-02T00:56:31;35.17;;;22.47;;
17606;SDS011;69222;52.242;20.980;2024-03-02T00:59:00;34.67;;;22.50;;
17606;SDS011;69222;52.242;20.980;2024-03-02T01:01:28;35.23;;;22.90;;
17606;SDS011;69222;52.242;20.980;2024-03-02T01:03:56;34.83;;;21.77;;
17606;SDS011;69222;52.242;20.980;2024-03-02T01:06:26;35.30;;;23.27;;
17606;SDS011;69222;52.242;20.980;2024-03-02T01:08:54;34.00;;;22.70;;
17606;SDS011;69222;52.242;20.980;2024-03-02T01:11:22;37.60;;;22.70;;
17606;SDS011;69222;52.242;20.980;2024-03-02T01:13:50;35.67;;;22.37;;
17606;SDS011;69222;52.242;20.980;2024-03-02T01:16:19;36.00;;;22.40;;
17606;SDS011;69222;52.242;20.980;2024-03-02T01:18:47;34.10;;;22.70;;
17606;SDS011;69222;52.242;20.980;2024-03-02T01:21:16;35.10;;;22.33;;
17606;SDS011;69222;52.242;20.980;2024-03-02T01:23:45;32.53;;;21.80;;
17606;SDS011;69222;52.242;20.980;2024-03-02T01:26:13;35.57;;;21.77;;
17606;SDS011;69222;52.242;20.980;2024-03-02T01:28:42;29.70;;;20.63;;
17606;SDS011;69222;52.242;20.980;2024-03-02T01:31:10;32.40;;;23.20;;
17606;SDS011;69222;52.242;20.980;2024-03-02T01:33:38;35.10;;;23.70;;
17606;SDS011;69222;52.242;20.980;2024-03-02T01:36:06;33.13;;;21.23;;
17606;SDS011;69222;52.242;20.980;2024-03-02T01:38:35;34.97;;;22.37;;
17606;SDS011;69222;52.242;20.980;2024-03-02T01:41:04;34.87;;;22.63;;
17606;SDS011;69222;52.242;20.980;2024-03-02T01:43:32;32.33;;;22.47;;
17606;SDS011;69222;52.242;20.980;2024-03-02T01:46:02;31.60;;;20.27;;
17606;SDS011;69222;52.242;20.980;2024-03-02T01:48:32;35.73;;;22.17;;
17606;SDS011;69222;52.242;20.980;2024-03-02T01:51:03;37.47;;;23.40;;
17606;SDS011;69222;52.242;20.980;2024-03-02T01:53:33;35.00;;;21.93;;
17606;SDS011;69222;52.242;20.980;2024-03-02T01:56:02;33.83;;;21.37;;
17606;SDS011;69222;52.242;20.980;2024-03-02T01:58:31;31.77;;;20.70;;
17606;SDS011;69222;52.242;20.980;2024-03-02T02:00:59;35.80;;;22.23;;
17606;SDS011;69222;52.242;20.980;2024-03-02T02:03:28;34.73;;;21.93;;
17606;SDS011;69222;52.242;20.980;2024-03-02T02:05:57;32.23;;;21.53;;
17606;SDS011;69222;52.242;20.980;2024-03-02T02:08:25;31.40;;;22.03;;
17606;SDS011;69222;52.242;20.980;2024-03-02T02:10:53;36.27;;;22.47;;
17606;SDS011;69222;52.242;20.980;2024-03-02T02:13:21;35.10;;;22.63;;
17606;SDS011;69222;52.242;20.980;2024-03-02T02:15:50;32.83;;;21.13;;
17606;SDS011;69222;52.242;20.980;2024-03-02T02:18:19;33.63;;;21.93;;
17606;SDS011;69222;52.242;20.980;2024-03-02T02:20:47;35.13;;;21.37;;
17606;SDS011;69222;52.242;20.980;2024-03-02T02:23:17;31.37;;;21.43;;
17606;SDS011;69222;52.242;20.980;2024-03-02T02:25:45;33.57;;;21.67;;
17606;SDS011;69222;52.242;20.980;2024-03-02T02:28:13;33.27;;;22.20;;
17606;SDS011;69222;52.242;20.980;2024-03-02T02:30:41;32.90;;;21.67;;
17606;SDS011;69222;52.242;20.980;2024-03-02T02:33:09;31.47;;;20.20;;
17606;SDS011;69222;52.242;20.980;2024-03-02T02:35:37;31.90;;;20.87;;
17606;SDS011;69222;52.242;20.980;2024-03-02T02:38:05;29.20;;;19.10;;
17606;SDS011;69222;52.242;20.980;2024-03-02T02:40:35;31.67;;;21.17;;
17606;SDS011;69222;52.242;20.980;2024-03-02T02:43:03;34.67;;;21.73;;
17606;SDS011;69222;52.242;20.980;2024-03-02T02:45:34;32.33;;;21.57;;
17606;SDS011;69222;52.242;20.980;2024-03-02T02:48:02;34.23;;;21.40;;
17606;SDS011;69222;52.242;20.980;2024-03-02T02:50:32;33.57;;;20.67;;
17606;SDS011;69222;52.242;20.980;2024-03-02T02:53:03;32.27;;;21.07;;
17606;SDS011;69222;52.242;20.980;2024-03-02T02:55:31;34.93;;;21.37;;
17606;SDS011;69222;52.242;20.980;2024-03-02T02:58:03;30.30;;;21.53;;
17606;SDS011;69222;52.242;20.980;2024-03-02T03:00:31;29.90;;;19.97;;
17606;SDS011;69222;52.242;20.980;2024-03-02T03:03:01;29.60;;;20.87;;
17606;SDS011;69222;52.242;20.980;2024-03-02T03:05:32;31.57;;;20.50;;
17606;SDS011;69222;52.242;20.980;2024-03-02T03:08:00;34.50;;;21.20;;
17606;SDS011;69222;52.242;20.980;2024-03-02T03:10:29;28.73;;;19.97;;
17606;SDS011;69222;52.242;20.980;2024-03-02T03:12:57;27.93;;;20.13;;
17606;SDS011;69222;52.242;20.980;2024-03-02T03:15:26;28.53;;;18.93;;
17606;SDS011;69222;52.242;20.980;2024-03-02T03:17:54;30.33;;;19.53;;
17606;SDS011;69222;52.242;20.980;2024-03-02T03:20:22;33.17;;;21.10;;
17606;SDS011;69222;52.242;20.980;2024-03-02T03:22:51;31.43;;;20.60;;
17606;SDS011;69222;52.242;20.980;2024-03-02T03:25:19;31.43;;;19.43;;
17606;SDS011;69222;52.242;20.980;2024-03-02T03:27:47;31.47;;;19.73;;
17606;SDS011;69222;52.242;20.980;2024-03-02T03:30:15;31.17;;;19.07;;
17606;SDS011;69222;52.242;20.980;2024-03-02T03:32:44;29.60;;;19.00;;
17606;SDS011;69222;52.242;20.980;2024-03-02T03:35:14;31.30;;;19.87;;
17606;SDS011;69222;52.242;20.980;2024-03-02T03:37:42;30.43;;;20.07;;
17606;SDS011;69222;52.242;20.980;2024-03-02T03:40:11;32.40;;;19.83;;
17606;SDS011;69222;52.242;20.980;2024-03-02T03:42:40;33.40;;;21.30;;
17606;SDS011;69222;52.242;20.980;2024-03-02T03:45:08;27.23;;;19.17;;
17606;SDS011;69222;52.242;20.980;2024-03-02T03:47:37;29.40;;;19.43;;
17606;SDS011;69222;52.242;20.980;2024-03-02T03:50:07;30.63;;;20.47;;
17606;SDS011;69222;52.242;20.980;2024-03-02T03:52:35;30.50;;;19.73;;
17606;SDS011;69222;52.242;20.980;2024-03-02T03:55:03;30.53;;;19.60;;
17606;SDS011;69222;52.242;20.980;2024-03-02T03:57:32;29.47;;;19.47;;
17606;SDS011;69222;52.242;20.980;2024-03-02T04:00:01;30.17;;;20.47;;
17606;SDS011;69222;52.242;20.980;2024-03-02T04:02:29;29.73;;;20.13;;
17606;SDS011;69222;52.242;20.980;2024-03-02T04:04:57;31.43;;;20.57;;
17606;SDS011;69222;52.242;20.980;2024-03-02T04:07:26;31.70;;;21.20;;
17606;SDS011;69222;52.242;20.980;2024-03-02T04:09:54;30.77;;;20.17;;
17606;SDS011;69222;52.242;20.980;2024-03-02T04:12:22;31.93;;;21.73;;
17606;SDS011;69222;52.242;20.980;2024-03-02T04:14:50;30.90;;;20.63;;
17606;SDS011;69222;52.242;20.980;2024-03-02T04:17:19;30.33;;;19.73;;
17606;SDS011;69222;52.242;20.980;2024-03-02T04:19:46;35.43;;;21.07;;
17606;SDS011;69222;52.242;20.980;2024-03-02T04:22:14;30.97;;;20.43;;
17606;SDS011;69222;52.242;20.980;2024-03-02T04:24:52;31.77;;;20.30;;
17606;SDS011;69222;52.242;20.980;2024-03-02T04:27:20;31.83;;;21.07;;
17606;SDS011;69222;52.242;20.980;2024-03-02T04:29:48;32.17;;;19.53;;
17606;SDS011;69222;52.242;20.980;2024-03-02T04:32:16;32.10;;;21.33;;
17606;SDS011;69222;52.242;20.980;2024-03-02T04:34:46;32.70;;;20.17;;
17606;SDS011;69222;52.242;20.980;2024-03-02T04:37:14;30.87;;;20.83;;
17606;SDS011;69222;52.242;20.980;2024-03-02T04:39:41;31.77;;;20.10;;
17606;SDS011;69222;52.242;20.980;2024-03-02T04:42:11;32.83;;;20.67;;
17606;SDS011;69222;52.242;20.980;2024-03-02T04:44:39;36.73;;;21.93;;
17606;SDS011;69222;52.242;20.980;2024-03-02T04:47:07;33.93;;;20.80;;
17606;SDS011;69222;52.242;20.980;2024-03-02T04:49:36;31.93;;;21.10;;
17606;SDS011;69222;52.242;20.980;2024-03-02T04:52:06;31.70;;;20.87;;
17606;SDS011;69222;52.242;20.980;2024-03-02T04:54:34;30.80;;;20.93;;
17606;SDS011;69222;52.242;20.980;2024-03-02T04:57:24;31.67;;;19.77;;
17606;SDS011;69222;52.242;20.980;2024-03-02T04:59:51;34.37;;;21.13;;
17606;SDS011;69222;52.242;20.980;2024-03-02T05:02:19;31.40;;;19.63;;
17606;SDS011;69222;52.242;20.980;2024-03-02T05:04:47;32.80;;;20.80;;
17606;SDS011;69222;52.242;20.980;2024-03-02T05:07:15;30.67;;;19.67;;
17606;SDS011;69222;52.242;20.980;2024-03-02T05:09:43;32.70;;;20.23;;
17606;SDS011;69222;52.242;20.980;2024-03-02T05:12:11;29.70;;;19.23;;
17606;SDS011;69222;52.242;20.980;2024-03-02T05:14:57;30.93;;;19.50;;
17606;SDS011;69222;52.242;20.980;2024-03-02T05:17:25;27.53;;;18.03;;
17606;SDS011;69222;52.242;20.980;2024-03-02T05:19:53;28.97;;;19.37;;
17606;SDS011;69222;52.242;20.980;2024-03-02T05:22:21;28.63;;;18.10;;
17606;SDS011;69222;52.242;20.980;2024-03-02T05:24:49;30.30;;;19.10;;
17606;SDS011;69222;52.242;20.980;2024-03-02T05:27:17;30.33;;;19.60;;
17606;SDS011;69222;52.242;20.980;2024-03-02T05:29:45;28.90;;;18.73;;
17606;SDS011;69222;52.242;20.980;2024-03-02T05:32:14;29.27;;;18.20;;
17606;SDS011;69222;52.242;20.980;2024-03-02T05:34:42;28.47;;;18.50;;
17606;SDS011;69222;52.242;20.980;2024-03-02T05:37:10;29.63;;;19.27;;
17606;SDS011;69222;52.242;20.980;2024-03-02T05:39:39;26.10;;;17.47;;
17606;SDS011;69222;52.242;20.980;2024-03-02T05:42:07;32.17;;;19.10;;
17606;SDS011;69222;52.242;20.980;2024-03-02T05:44:35;26.43;;;17.90;;
17606;SDS011;69222;52.242;20.980;2024-03-02T05:47:03;29.30;;;19.40;;
17606;SDS011;69222;52.242;20.980;2024-03-02T05:49:33;28.23;;;19.23;;
17606;SDS011;69222;52.242;20.980;2024-03-02T05:52:01;27.73;;;17.90;;
17606;SDS011;69222;52.242;20.980;2024-03-02T05:54:29;30.97;;;18.33;;
17606;SDS011;69222;52.242;20.980;2024-03-02T05:56:57;30.23;;;18.63;;
17606;SDS011;69222;52.242;20.980;2024-03-02T05:59:43;26.97;;;18.47;;
17606;SDS011;69222;52.242;20.980;2024-03-02T06:02:11;27.10;;;17.30;;
17606;SDS011;69222;52.242;20.980;2024-03-02T06:04:40;32.37;;;18.13;;
17606;SDS011;69222;52.242;20.980;2024-03-02T06:07:09;28.40;;;17.67;;
17606;SDS011;69222;52.242;20.980;2024-03-02T06:09:36;29.97;;;17.03;;
17606;SDS011;69222;52.242;20.980;2024-03-02T06:12:05;28.77;;;17.47;;
17606;SDS011;69222;52.242;20.980;2024-03-02T06:14:33;31.17;;;16.60;;
17606;SDS011;69222;52.242;20.980;2024-03-02T06:17:01;24.87;;;16.80;;
17606;SDS011;69222;52.242;20.980;2024-03-02T06:19:29;24.00;;;16.73;;
17606;SDS011;69222;52.242;20.980;2024-03-02T06:21:58;26.27;;;16.90;;
17606;SDS011;69222;52.242;20.980;2024-03-02T06:24:26;29.27;;;17.70;;
17606;SDS011;69222;52.242;20.980;2024-03-02T06:26:54;26.67;;;17.07;;
17606;SDS011;69222;52.242;20.980;2024-03-02T06:29:23;29.13;;;17.83;;
17606;SDS011;69222;52.242;20.980;2024-03-02T06:31:51;28.77;;;18.03;;
17606;SDS011;69222;52.242;20.980;2024-03-02T06:34:20;29.30;;;17.40;;
17606;SDS011;69222;52.242;20.980;2024-03-02T06:36:48;27.03;;;16.77;;
17606;SDS011;69222;52.242;20.980;2024-03-02T06:39:18;30.10;;;17.80;;
17606;SDS011;69222;52.242;20.980;2024-03-02T06:41:46;26.70;;;16.07;;
17606;SDS011;69222;52.242;20.980;2024-03-02T06:44:14;23.70;;;16.80;;
17606;SDS011;69222;52.242;20.980;2024-03-02T06:46:42;28.27;;;17.07;;
17606;SDS011;69222;52.242;20.980;2024-03-02T06:49:10;29.23;;;17.70;;
17606;SDS011;69222;52.242;20.980;2024-03-02T06:51:39;29.53;;;17.77;;
17606;SDS011;69222;52.242;20.980;2024-03-02T06:54:08;25.47;;;16.47;;
17606;SDS011;69222;52.242;20.980;2024-03-02T06:56:38;27.17;;;16.40;;
17606;SDS011;69222;52.242;20.980;2024-03-02T06:59:06;28.07;;;15.93;;
17606;SDS011;69222;52.242;20.980;2024-03-02T07:01:34;27.13;;;16.63;;
17606;SDS011;69222;52.242;20.980;2024-03-02T07:04:02;24.70;;;16.43;;
17606;SDS011;69222;52.242;20.980;2024-03-02T07:06:33;25.60;;;15.67;;
17606;SDS011;69222;52.242;20.980;2024-03-02T07:09:01;25.93;;;15.60;;
17606;SDS011;69222;52.242;20.980;2024-03-02T07:11:29;24.73;;;15.97;;
17606;SDS011;69222;52.242;20.980;2024-03-02T07:13:58;23.93;;;16.20;;
17606;SDS011;69222;52.242;20.980;2024-03-02T07:16:26;29.50;;;16.63;;
17606;SDS011;69222;52.242;20.980;2024-03-02T07:18:59;28.63;;;16.17;;
17606;SDS011;69222;52.242;20.980;2024-03-02T07:21:28;26.67;;;16.23;;
17606;SDS011;69222;52.242;20.980;2024-03-02T07:23:56;25.07;;;15.60;;
17606;SDS011;69222;52.242;20.980;2024-03-02T07:26:25;25.30;;;16.27;;
17606;SDS011;69222;52.242;20.980;2024-03-02T07:28:56;24.23;;;16.50;;
17606;SDS011;69222;52.242;20.980;2024-03-02T07:31:25;24.97;;;16.37;;
17606;SDS011;69222;52.242;20.980;2024-03-02T07:33:53;25.30;;;15.80;;
17606;SDS011;69222;52.242;20.980;2024-03-02T07:36:21;28.90;;;15.83;;
17606;SDS011;69222;52.242;20.980;2024-03-02T07:38:50;26.60;;;17.23;;
17606;SDS011;69222;52.242;20.980;2024-03-02T07:41:18;29.03;;;16.43;;
17606;SDS011;69222;52.242;20.980;2024-03-02T07:43:46;23.97;;;15.30;;
17606;SDS011;69222;52.242;20.980;2024-03-02T07:46:15;28.10;;;15.10;;
17606;SDS011;69222;52.242;20.980;2024-03-02T07:48:45;26.10;;;16.07;;
17606;SDS011;69222;52.242;20.980;2024-03-02T07:51:14;26.33;;;16.50;;
17606;SDS011;69222;52.242;20.980;2024-03-02T07:53:43;27.07;;;15.33;;
17606;SDS011;69222;52.242;20.980;2024-03-02T07:56:13;25.53;;;15.50;;
17606;SDS011;69222;52.242;20.980;2024-03-02T07:58:48;30.07;;;16.63;;
17606;SDS011;69222;52.242;20.980;2024-03-02T08:01:16;23.63;;;15.37;;
17606;SDS011;69222;52.242;20.980;2024-03-02T08:03:46;25.10;;;16.10;;
17606;SDS011;69222;52.242;20.980;2024-03-02T08:06:16;25.87;;;15.27;;
17606;SDS011;69222;52.242;20.980;2024-03-02T08:08:47;26.43;;;15.73;;
17606;SDS011;69222;52.242;20.980;2024-03-02T08:11:15;25.47;;;14.60;;
17606;SDS011;69222;52.242;20.980;2024-03-02T08:13:46;27.63;;;15.80;;
17606;SDS011;69222;52.242;20.980;2024-03-02T08:16:15;27.97;;;16.00;;
17606;SDS011;69222;52.242;20.980;2024-03-02T08:18:47;24.90;;;14.73;;
17606;SDS011;69222;52.242;20.980;2024-03-02T08:21:16;23.33;;;15.10;;
17606;SDS011;69222;52.242;20.980;2024-03-02T08:23:44;23.53;;;14.73;;
17606;SDS011;69222;52.242;20.980;2024-03-02T08:26:13;23.07;;;13.67;;
17606;SDS011;69222;52.242;20.980;2024-03-02T08:28:41;24.13;;;15.40;;
17606;SDS011;69222;52.242;20.980;2024-03-02T08:31:09;27.43;;;15.50;;
17606;SDS011;69222;52.242;20.980;2024-03-02T08:33:37;22.17;;;14.83;;
17606;SDS011;69222;52.242;20.980;2024-03-02T08:36:08;24.10;;;14.83;;
17606;SDS011;69222;52.242;20.980;2024-03-02T08:38:36;23.20;;;15.37;;
17606;SDS011;69222;52.242;20.980;2024-03-02T08:41:05;25.27;;;15.73;;
17606;SDS011;69222;52.242;20.980;2024-03-02T08:43:34;26.50;;;15.97;;
17606;SDS011;69222;52.242;20.980;2024-03-02T08:46:03;27.93;;;16.50;;
17606;SDS011;69222;52.242;20.980;2024-03-02T08:48:31;28.97;;;15.87;;
17606;SDS011;69222;52.242;20.980;2024-03-02T08:50:59;27.03;;;15.67;;
17606;SDS011;69222;52.242;20.980;2024-03-02T08:53:28;28.57;;;15.80;;
17606;SDS011;69222;52.242;20.980;2024-03-02T08:55:56;31.27;;;16.30;;
17606;SDS011;69222;52.242;20.980;2024-03-02T08:58:28;25.17;;;16.53;;
17606;SDS011;69222;52.242;20.980;2024-03-02T09:00:56;27.67;;;16.27;;
17606;SDS011;69222;52.242;20.980;2024-03-02T09:03:24;26.03;;;15.80;;
17606;SDS011;69222;52.242;20.980;2024-03-02T09:05:52;27.50;;;15.03;;
17606;SDS011;69222;52.242;20.980;2024-03-02T09:08:20;24.67;;;15.53;;
17606;SDS011;69222;52.242;20.980;2024-03-02T09:10:50;26.10;;;16.50;;
17606;SDS011;69222;52.242;20.980;2024-03-02T09:13:18;25.60;;;15.23;;
17606;SDS011;69222;52.242;20.980;2024-03-02T09:15:46;33.03;;;16.53;;
17606;SDS011;69222;52.242;20.980;2024-03-02T09:18:14;30.03;;;16.50;;
17606;SDS011;69222;52.242;20.980;2024-03-02T09:20:42;26.07;;;15.83;;
17606;SDS011;69222;52.242;20.980;2024-03-02T09:23:10;28.43;;;16.27;;
17606;SDS011;69222;52.242;20.980;2024-03-02T09:25:38;24.23;;;15.53;;
17606;SDS011;69222;52.242;20.980;2024-03-02T09:28:07;25.17;;;16.53;;
17606;SDS011;69222;52.242;20.980;2024-03-02T09:30:35;27.10;;;15.93;;
17606;SDS011;69222;52.242;20.980;2024-03-02T09:33:04;25.30;;;15.00;;
17606;SDS011;69222;52.242;20.980;2024-03-02T09:35:35;23.90;;;14.87;;
17606;SDS011;69222;52.242;20.980;2024-03-02T09:38:03;26.03;;;14.47;;
17606;SDS011;69222;52.242;20.980;2024-03-02T09:40:31;23.77;;;15.40;;
17606;SDS011;69222;52.242;20.980;2024-03-02T09:42:59;24.87;;;15.47;;
17606;SDS011;69222;52.242;20.980;2024-03-02T09:45:29;27.27;;;15.20;;
17606;SDS011;69222;52.242;20.980;2024-03-02T09:47:58;26.33;;;16.03;;
17606;SDS011;69222;52.242;20.980;2024-03-02T09:50:27;24.87;;;15.70;;
17606;SDS011;69222;52.242;20.980;2024-03-02T09:52:55;24.10;;;14.23;;
17606;SDS011;69222;52.242;20.980;2024-03-02T09:55:23;25.93;;;15.43;;
17606;SDS011;69222;52.242;20.980;2024-03-02T09:57:51;23.10;;;14.80;;
17606;SDS011;69222;52.242;20.980;2024-03-02T10:00:19;25.87;;;16.30;;
17606;SDS011;69222;52.242;20.980;2024-03-02T10:02:49;23.97;;;15.17;;
17606;SDS011;69222;52.242;20.980;2024-03-02T10:05:23;26.80;;;14.47;;
17606;SDS011;69222;52.242;20.980;2024-03-02T10:07:58;23.73;;;15.37;;
17606;SDS011;69222;52.242;20.980;2024-03-02T10:10:34;29.10;;;15.23;;
17606;SDS011;69222;52.242;20.980;2024-03-02T10:13:06;25.20;;;16.00;;
17606;SDS011;69222;52.242;20.980;2024-03-02T10:15:37;26.87;;;15.27;;
17606;SDS011;69222;52.242;20.980;2024-03-02T10:18:09;26.27;;;14.97;;
17606;SDS011;69222;52.242;20.980;2024-03-02T10:20:39;27.00;;;15.93;;
17606;SDS011;69222;52.242;20.980;2024-03-02T10:23:11;24.00;;;14.57;;
17606;SDS011;69222;52.242;20.980;2024-03-02T10:25:40;23.53;;;14.10;;
17606;SDS011;69222;52.242;20.980;2024-03-02T10:28:22;23.97;;;15.33;;
17606;SDS011;69222;52.242;20.980;2024-03-02T10:30:50;26.63;;;16.20;;
17606;SDS011;69222;52.242;20.980;2024-03-02T10:33:21;24.70;;;15.03;;
17606;SDS011;69222;52.242;20.980;2024-03-02T10:35:49;27.30;;;17.10;;
17606;SDS011;69222;52.242;20.980;2024-03-02T10:38:18;21.13;;;14.57;;
17606;SDS011;69222;52.242;20.980;2024-03-02T10:40:47;28.97;;;16.13;;
17606;SDS011;69222;52.242;20.980;2024-03-02T10:43:15;24.30;;;15.17;;
17606;SDS011;69222;52.242;20.980;2024-03-02T10:45:45;26.70;;;16.50;;
17606;SDS011;69222;52.242;20.980;2024-03-02T10:48:19;25.50;;;15.50;;
17606;SDS011;69222;52.242;20.980;2024-03-02T10:50:50;27.27;;;14.73;;
17606;SDS011;69222;52.242;20.980;2024-03-02T10:53:21;25.40;;;15.37;;
17606;SDS011;69222;52.242;20.980;2024-03-02T10:55:49;25.40;;;14.80;;
17606;SDS011;69222;52.242;20.980;2024-03-02T10:58:21;27.33;;;15.27;;
17606;SDS011;69222;52.242;20.980;2024-03-02T11:00:54;27.20;;;15.53;;
17606;SDS011;69222;52.242;20.980;2024-03-02T11:03:23;29.30;;;14.63;;
17606;SDS011;69222;52.242;20.980;2024-03-02T11:05:53;25.80;;;16.53;;
17606;SDS011;69222;52.242;20.980;2024-03-02T11:08:21;21.60;;;15.07;;
17606;SDS011;69222;52.242;20.980;2024-03-02T11:10:54;26.67;;;16.37;;
17606;SDS011;69222;52.242;20.980;2024-03-02T11:13:27;27.30;;;16.63;;
17606;SDS011;69222;52.242;20.980;2024-03-02T11:16:04;28.40;;;15.90;;
17606;SDS011;69222;52.242;20.980;2024-03-02T11:18:36;28.87;;;17.10;;
17606;SDS011;69222;52.242;20.980;2024-03-02T11:21:07;29.20;;;17.27;;
17606;SDS011;69222;52.242;20.980;2024-03-02T11:23:35;31.17;;;17.10;;
17606;SDS011;69222;52.242;20.980;2024-03-02T11:26:16;28.30;;;17.37;;
17606;SDS011;69222;52.242;20.980;2024-03-02T11:28:45;25.53;;;17.00;;
17606;SDS011;69222;52.242;20.980;2024-03-02T11:31:13;29.87;;;17.43;;
17606;SDS011;69222;52.242;20.980;2024-03-02T11:33:41;29.73;;;18.50;;
17606;SDS011;69222;52.242;20.980;2024-03-02T11:36:11;27.43;;;18.40;;
17606;SDS011;69222;52.242;20.980;2024-03-02T11:38:39;28.67;;;17.43;;
17606;SDS011;69222;52.242;20.980;2024-03-02T11:41:11;28.93;;;18.67;;
17606;SDS011;69222;52.242;20.980;2024-03-02T11:43:40;29.97;;;19.00;;
17606;SDS011;69222;52.242;20.980;2024-03-02T11:46:10;29.03;;;18.47;;
17606;SDS011;69222;52.242;20.980;2024-03-02T11:48:39;35.07;;;20.80;;
17606;SDS011;69222;52.242;20.980;2024-03-02T11:51:08;32.27;;;20.57;;
17606;SDS011;69222;52.242;20.980;2024-03-02T11:53:37;36.37;;;21.77;;
17606;SDS011;69222;52.242;20.980;2024-03-02T11:56:06;34.30;;;20.77;;
17606;SDS011;69222;52.242;20.980;2024-03-02T11:58:38;32.53;;;21.00;;
17606;SDS011;69222;52.242;20.980;2024-03-02T12:01:09;35.37;;;21.53;;
17606;SDS011;69222;52.242;20.980;2024-03-02T12:03:38;34.37;;;20.87;;
17606;SDS011;69222;52.242;20.980;2024-03-02T12:06:07;28.97;;;19.70;;
17606;SDS011;69222;52.242;20.980;2024-03-02T12:08:36;30.60;;;21.60;;
17606;SDS011;69222;52.242;20.980;2024-03-02T12:11:05;34.73;;;21.67;;
17606;SDS011;69222;52.242;20.980;2024-03-02T12:13:34;34.77;;;23.17;;
17606;SDS011;69222;52.242;20.980;2024-03-02T12:16:02;35.60;;;22.97;;
17606;SDS011;69222;52.242;20.980;2024-03-02T12:18:31;33.50;;;22.67;;
17606;SDS011;69222;52.242;20.980;2024-03-02T12:21:00;36.20;;;21.97;;
17606;SDS011;69222;52.242;20.980;2024-03-02T12:23:30;35.13;;;22.03;;
17606;SDS011;69222;52.242;20.980;2024-03-02T12:26:01;33.33;;;22.43;;
17606;SDS011;69222;52.242;20.980;2024-03-02T12:28:29;34.73;;;22.60;;
17606;SDS011;69222;52.242;20.980;2024-03-02T12:30:58;33.70;;;22.77;;
17606;SDS011;69222;52.242;20.980;2024-03-02T12:33:27;42.30;;;24.17;;
17606;SDS011;69222;52.242;20.980;2024-03-02T12:35:56;37.70;;;22.77;;
17606;SDS011;69222;52.242;20.980;2024-03-02T12:38:25;39.33;;;23.27;;
17606;SDS011;69222;52.242;20.980;2024-03-02T12:40:59;36.07;;;23.23;;
17606;SDS011;69222;52.242;20.980;2024-03-02T12:43:29;33.83;;;23.30;;
17606;SDS011;69222;52.242;20.980;2024-03-02T12:45:58;34.53;;;23.27;;
17606;SDS011;69222;52.242;20.980;2024-03-02T12:48:29;34.07;;;22.87;;
17606;SDS011;69222;52.242;20.980;2024-03-02T12:50:57;37.87;;;22.23;;
17606;SDS011;69222;52.242;20.980;2024-03-02T12:53:25;31.00;;;21.30;;
17606;SDS011;69222;52.242;20.980;2024-03-02T12:55:53;33.67;;;22.50;;
17606;SDS011;69222;52.242;20.980;2024-03-02T12:58:23;33.03;;;23.37;;
17606;SDS011;69222;52.242;20.980;2024-03-02T13:01:05;31.03;;;21.67;;
17606;SDS011;69222;52.242;20.980;2024-03-02T13:03:34;32.13;;;22.43;;
17606;SDS011;69222;52.242;20.980;2024-03-02T13:06:03;32.57;;;22.37;;
17606;SDS011;69222;52.242;20.980;2024-03-02T13:08:32;30.70;;;20.93;;
17606;SDS011;69222;52.242;20.980;2024-03-02T13:11:01;31.73;;;21.10;;
17606;SDS011;69222;52.242;20.980;2024-03-02T13:13:35;29.80;;;21.57;;
17606;SDS011;69222;52.242;20.980;2024-03-02T13:16:04;33.17;;;22.90;;
17606;SDS011;69222;52.242;20.980;2024-03-02T13:18:35;30.07;;;21.33;;
17606;SDS011;69222;52.242;20.980;2024-03-02T13:21:03;30.43;;;22.87;;
17606;SDS011;69222;52.242;20.980;2024-03-02T13:23:31;28.67;;;20.67;;
17606;SDS011;69222;52.242;20.980;2024-03-02T13:26:00;32.77;;;20.83;;
17606;SDS011;69222;52.242;20.980;2024-03-02T13:28:28;32.50;;;21.07;;
17606;SDS011;69222;52.242;20.980;2024-03-02T13:30:57;35.13;;;22.40;;
17606;SDS011;69222;52.242;20.980;2024-03-02T13:33:26;31.47;;;22.10;;
17606;SDS011;69222;52.242;20.980;2024-03-02T13:35:55;34.30;;;21.90;;
17606;SDS011;69222;52.242;20.980;2024-03-02T13:38:23;33.93;;;22.50;;
17606;SDS011;69222;52.242;20.980;2024-03-02T13:40:51;34.27;;;23.07;;
17606;SDS011;69222;52.242;20.980;2024-03-02T13:43:20;33.77;;;22.03;;
17606;SDS011;69222;52.242;20.980;2024-03-02T13:45:49;33.47;;;23.73;;
17606;SDS011;69222;52.242;20.980;2024-03-02T13:48:20;34.87;;;23.53;;
17606;SDS011;69222;52.242;20.980;2024-03-02T13:50:48;36.60;;;22.27;;
17606;SDS011;69222;52.242;20.980;2024-03-02T13:53:16;32.23;;;22.03;;
17606;SDS011;69222;52.242;20.980;2024-03-02T13:55:44;37.97;;;22.50;;
17606;SDS011;69222;52.242;20.980;2024-03-02T13:58:12;34.70;;;21.63;;
17606;SDS011;69222;52.242;20.980;2024-03-02T14:00:43;36.57;;;22.67;;
17606;SDS011;69222;52.242;20.980;2024-03-02T14:03:13;33.83;;;21.43;;
17606;SDS011;69222;52.242;20.980;2024-03-02T14:05:44;33.70;;;22.93;;
17606;SDS011;69222;52.242;20.980;2024-03-02T14:08:13;33.17;;;22.50;;
17606;SDS011;69222;52.242;20.980;2024-03-02T14:10:41;35.70;;;23.67;;
17606;SDS011;69222;52.242;20.980;2024-03-02T14:13:09;33.17;;;23.33;;
17606;SDS011;69222;52.242;20.980;2024-03-02T14:15:38;33.43;;;23.63;;
17606;SDS011;69222;52.242;20.980;2024-03-02T14:18:06;36.70;;;24.67;;
17606;SDS011;69222;52.242;20.980;2024-03-02T14:20:36;34.53;;;21.97;;